createdAt,value
2019-02-23T00:02:22.567Z,6.53
2019-02-23T00:04:51.133Z,6.51
2019-02-23T00:07:19.451Z,6.50
2019-02-23T00:09:48.090Z,6.46
2019-02-23T00:12:16.436Z,6.48
2019-02-23T00:14:44.722Z,6.42
2019-02-23T00:17:13.127Z,6.36
2019-02-23T00:19:41.416Z,6.33
2019-02-23T00:22:09.999Z,6.30
2019-02-23T00:24:38.661Z,6.30
2019-02-23T00:27:06.953Z,6.28
2019-02-23T00:29:35.264Z,6.27
2019-02-23T00:32:03.562Z,6.30
2019-02-23T00:34:31.875Z,6.27
2019-02-23T00:37:00.199Z,6.23
2019-02-23T00:39:28.528Z,6.24
2019-02-23T00:41:56.825Z,6.29
2019-02-23T00:44:25.134Z,6.24
2019-02-23T00:46:53.445Z,6.22
2019-02-23T00:49:21.848Z,6.19
2019-02-23T00:51:51.911Z,6.16
2019-02-23T00:54:20.285Z,6.12
2019-02-23T00:56:48.586Z,6.09
2019-02-23T00:59:17.217Z,6.05
2019-02-23T01:01:45.541Z,6.04
2019-02-23T01:04:13.831Z,6.00
2019-02-23T01:06:42.239Z,6.01
2019-02-23T01:09:10.604Z,6.02
2019-02-23T01:11:39.022Z,5.98
2019-02-23T01:14:07.319Z,5.94
2019-02-23T01:16:35.697Z,5.91
2019-02-23T01:19:04.332Z,5.90
2019-02-23T01:21:32.645Z,5.89
2019-02-23T01:24:00.951Z,5.90
2019-02-23T01:26:29.281Z,5.97
2019-02-23T01:28:57.572Z,5.95
2019-02-23T01:31:25.975Z,5.89
2019-02-23T01:33:54.593Z,5.84
2019-02-23T01:36:22.909Z,5.78
2019-02-23T01:38:51.211Z,5.81
2019-02-23T01:41:19.553Z,5.84
2019-02-23T01:43:47.839Z,5.84
2019-02-23T01:46:16.608Z,5.82
2019-02-23T01:48:44.899Z,5.80
2019-02-23T01:51:13.214Z,5.77
2019-02-23T01:53:41.522Z,5.76
2019-02-23T01:56:09.826Z,5.77
2019-02-23T01:58:38.115Z,5.74
2019-02-23T02:01:06.518Z,5.68
2019-02-23T02:03:34.876Z,5.67
2019-02-23T02:06:03.259Z,5.66
2019-02-23T02:08:31.915Z,5.65
2019-02-23T02:11:00.221Z,5.68
2019-02-23T02:13:28.530Z,5.65
2019-02-23T02:15:56.837Z,5.65
2019-02-23T02:18:25.160Z,5.66
2019-02-23T02:20:53.789Z,5.71
2019-02-23T02:23:22.086Z,5.69
2019-02-23T02:25:50.402Z,5.68
2019-02-23T02:28:18.700Z,5.69
2019-02-23T02:30:47.012Z,5.71
2019-02-23T02:33:15.696Z,5.74
2019-02-23T02:35:43.984Z,5.68
2019-02-23T02:38:12.566Z,5.65
2019-02-23T02:40:40.866Z,5.66
2019-02-23T02:43:09.191Z,5.65
2019-02-23T02:45:37.497Z,5.63
2019-02-23T02:48:05.802Z,5.61
2019-02-23T02:50:34.095Z,5.63
2019-02-23T02:53:02.410Z,5.63
2019-02-23T02:55:30.707Z,5.62
2019-02-23T02:57:59.019Z,5.63
2019-02-23T03:00:27.574Z,5.63
2019-02-23T03:02:55.957Z,5.56
2019-02-23T03:05:24.721Z,5.53
2019-02-23T03:07:53.040Z,5.51
2019-02-23T03:10:21.414Z,5.49
2019-02-23T03:12:49.735Z,5.49
2019-02-23T03:15:18.322Z,5.47
2019-02-23T03:17:46.642Z,5.41
2019-02-23T03:20:14.994Z,5.30
2019-02-23T03:22:43.311Z,5.24
2019-02-23T03:25:11.607Z,5.19
2019-02-23T03:27:39.920Z,5.19
2019-02-23T03:30:11.085Z,5.27
2019-02-23T03:32:39.377Z,5.29
2019-02-23T03:35:07.762Z,5.31
2019-02-23T03:37:36.131Z,5.28
2019-02-23T03:40:05.592Z,5.20
2019-02-23T03:42:33.925Z,5.20
2019-02-23T03:45:02.270Z,5.14
2019-02-23T03:47:30.548Z,5.11
2019-02-23T03:49:58.856Z,5.05
2019-02-23T03:52:27.163Z,5.05
2019-02-23T03:54:55.780Z,5.12
2019-02-23T03:57:24.088Z,5.12
2019-02-23T03:59:52.391Z,5.15
2019-02-23T04:02:20.683Z,5.08
2019-02-23T04:04:49.023Z,5.03
2019-02-23T04:07:17.319Z,5.02
2019-02-23T04:09:45.639Z,5.03
2019-02-23T04:12:13.956Z,4.95
2019-02-23T04:14:42.261Z,4.85
2019-02-23T04:17:10.573Z,4.81
2019-02-23T04:19:38.859Z,4.80
2019-02-23T04:22:07.166Z,4.77
2019-02-23T04:24:35.490Z,4.69
2019-02-23T04:27:04.172Z,4.64
2019-02-23T04:29:32.465Z,4.64
2019-02-23T04:32:00.784Z,4.64
2019-02-23T04:34:29.423Z,4.64
2019-02-23T04:36:57.724Z,4.62
2019-02-23T04:39:26.132Z,4.60
2019-02-23T04:41:54.431Z,4.55
2019-02-23T04:44:22.735Z,4.45
2019-02-23T04:46:53.881Z,4.37
2019-02-23T04:49:22.211Z,4.30
2019-02-23T04:51:50.504Z,4.29
2019-02-23T04:54:18.823Z,4.31
2019-02-23T04:56:47.178Z,4.31
2019-02-23T04:59:15.455Z,4.27
2019-02-23T05:01:43.748Z,4.29
2019-02-23T05:04:12.322Z,4.33
2019-02-23T05:06:41.587Z,4.33
2019-02-23T05:09:09.900Z,4.36
2019-02-23T05:11:38.190Z,4.34
2019-02-23T05:14:06.516Z,4.28
2019-02-23T05:16:34.868Z,4.26
2019-02-23T05:19:03.173Z,4.23
2019-02-23T05:21:31.487Z,4.21
2019-02-23T05:23:59.796Z,4.23
2019-02-23T05:26:28.106Z,4.24
2019-02-23T05:28:56.416Z,4.22
2019-02-23T05:31:24.724Z,4.24
2019-02-23T05:33:53.023Z,4.26
2019-02-23T05:36:21.390Z,4.25
2019-02-23T05:38:49.678Z,4.24
2019-02-23T05:41:18.007Z,4.21
2019-02-23T05:43:46.307Z,4.17
2019-02-23T05:46:14.653Z,4.15
2019-02-23T05:48:42.947Z,4.17
2019-02-23T05:51:11.255Z,4.19
2019-02-23T05:53:39.571Z,4.21
2019-02-23T05:56:08.178Z,4.17
2019-02-23T05:58:36.486Z,4.17
2019-02-23T06:01:04.796Z,4.16
2019-02-23T06:03:33.112Z,4.17
2019-02-23T06:06:01.408Z,4.15
2019-02-23T06:08:29.740Z,4.15
2019-02-23T06:10:58.058Z,4.14
2019-02-23T06:13:26.718Z,4.09
2019-02-23T06:15:55.036Z,4.05
2019-02-23T06:18:23.359Z,4.03
2019-02-23T06:20:51.657Z,4.00
2019-02-23T06:23:20.256Z,3.99
2019-02-23T06:25:48.523Z,3.98
2019-02-23T06:28:17.201Z,3.95
2019-02-23T06:30:45.522Z,3.94
2019-02-23T06:33:13.876Z,3.95
2019-02-23T06:35:42.529Z,3.92
2019-02-23T06:38:10.822Z,3.88
2019-02-23T06:40:39.131Z,3.84
2019-02-23T06:43:07.486Z,3.83
2019-02-23T06:45:35.812Z,3.78
2019-02-23T06:48:04.109Z,3.81
2019-02-23T06:50:32.440Z,3.86
2019-02-23T06:53:00.745Z,3.93
2019-02-23T06:55:29.070Z,3.99
2019-02-23T06:57:57.394Z,4.02
2019-02-23T07:00:25.729Z,4.03
2019-02-23T07:02:53.998Z,4.03
2019-02-23T07:05:22.565Z,4.06
2019-02-23T07:07:50.868Z,4.09
2019-02-23T07:10:19.172Z,4.15
2019-02-23T07:12:47.908Z,4.19
2019-02-23T07:15:16.283Z,4.21
2019-02-23T07:17:44.605Z,4.24
2019-02-23T07:20:12.968Z,4.25
2019-02-23T07:22:41.284Z,4.28
2019-02-23T07:25:10.257Z,4.30
2019-02-23T07:27:38.588Z,4.29
2019-02-23T07:30:14.272Z,4.25
2019-02-23T07:32:42.548Z,4.17
2019-02-23T07:35:11.242Z,4.15
2019-02-23T07:37:39.532Z,4.13
2019-02-23T07:40:10.242Z,4.20
2019-02-23T07:42:38.551Z,4.29
2019-02-23T07:45:08.897Z,4.33
2019-02-23T07:47:37.492Z,4.32
2019-02-23T07:50:08.983Z,4.23
2019-02-23T07:52:37.293Z,4.22
2019-02-23T07:55:06.365Z,4.29
2019-02-23T07:57:34.662Z,4.34
2019-02-23T08:00:02.978Z,4.29
2019-02-23T08:02:31.299Z,4.24
2019-02-23T08:04:59.923Z,4.13
2019-02-23T08:07:28.495Z,4.09
2019-02-23T08:09:56.848Z,4.09
2019-02-23T08:12:25.217Z,4.11
2019-02-23T08:14:53.520Z,4.20
2019-02-23T08:17:22.228Z,4.25
2019-02-23T08:19:50.515Z,4.33
2019-02-23T08:22:18.840Z,4.37
2019-02-23T08:24:47.471Z,4.32
2019-02-23T08:27:15.893Z,4.35
2019-02-23T08:29:44.275Z,4.37
2019-02-23T08:32:12.589Z,4.48
2019-02-23T08:34:40.884Z,4.56
2019-02-23T08:37:09.199Z,4.61
2019-02-23T08:39:37.516Z,4.59
2019-02-23T08:42:05.848Z,4.61
2019-02-23T08:44:34.134Z,4.70
2019-02-23T08:47:02.423Z,4.78
2019-02-23T08:49:30.752Z,4.85
2019-02-23T08:51:59.042Z,4.95
2019-02-23T08:54:27.372Z,5.08
2019-02-23T08:56:55.661Z,5.19
2019-02-23T08:59:23.981Z,5.30
2019-02-23T09:01:52.279Z,5.39
2019-02-23T09:04:20.588Z,5.40
2019-02-23T09:06:48.882Z,5.43
2019-02-23T09:09:17.204Z,5.45
2019-02-23T09:11:45.849Z,5.64
2019-02-23T09:14:14.173Z,5.67
2019-02-23T09:16:42.487Z,5.76
2019-02-23T09:19:10.787Z,5.89
2019-02-23T09:21:39.104Z,6.07
2019-02-23T09:24:07.432Z,6.21
2019-02-23T09:26:35.747Z,6.26
2019-02-23T09:29:04.308Z,6.35
2019-02-23T09:31:32.870Z,6.42
2019-02-23T09:34:01.166Z,6.46
2019-02-23T09:36:29.482Z,6.55
2019-02-23T09:38:58.131Z,6.62
2019-02-23T09:41:27.005Z,6.71
2019-02-23T09:43:55.312Z,6.73
2019-02-23T09:46:24.071Z,6.77
2019-02-23T09:48:52.362Z,6.79
2019-02-23T09:51:20.674Z,6.81
2019-02-23T09:53:49.041Z,6.86
2019-02-23T09:56:17.681Z,6.93
2019-02-23T09:58:45.989Z,6.98
2019-02-23T10:01:14.751Z,7.02
2019-02-23T10:03:43.061Z,7.11
2019-02-23T10:06:11.729Z,7.23
2019-02-23T10:08:40.031Z,7.34
2019-02-23T10:11:08.315Z,7.45
2019-02-23T10:13:36.657Z,7.51
2019-02-23T10:16:05.239Z,7.51
2019-02-23T10:18:33.658Z,7.50
2019-02-23T10:21:02.027Z,7.50
2019-02-23T10:23:30.358Z,7.62
2019-02-23T10:25:58.648Z,7.66
2019-02-23T10:28:27.224Z,7.74
2019-02-23T10:30:55.516Z,7.85
2019-02-23T10:33:23.849Z,7.83
2019-02-23T10:35:52.474Z,7.87
2019-02-23T10:38:20.786Z,7.90
2019-02-23T10:40:49.102Z,7.97
2019-02-23T10:43:17.410Z,8.05
2019-02-23T10:45:45.714Z,8.11
2019-02-23T10:48:14.363Z,8.16
2019-02-23T10:50:42.687Z,8.20
2019-02-23T10:53:11.017Z,8.22
2019-02-23T10:55:39.589Z,8.34
2019-02-23T10:58:07.913Z,8.49
2019-02-23T11:00:36.405Z,8.57
2019-02-23T11:03:04.896Z,8.58
2019-02-23T11:05:33.208Z,8.65
2019-02-23T11:08:01.581Z,8.69
2019-02-23T11:10:29.978Z,8.75
2019-02-23T11:12:58.378Z,8.83
2019-02-23T11:15:27.343Z,8.82
2019-02-23T11:17:55.668Z,8.77
2019-02-23T11:20:23.976Z,8.85
2019-02-23T11:22:52.579Z,8.93
2019-02-23T11:25:20.939Z,9.03
2019-02-23T11:27:49.555Z,9.05
2019-02-23T11:30:18.026Z,8.97
2019-02-23T11:32:46.349Z,8.91
2019-02-23T11:35:17.479Z,8.93
2019-02-23T11:37:46.073Z,8.96
2019-02-23T11:40:15.429Z,8.96
2019-02-23T11:42:43.730Z,8.96
2019-02-23T11:45:12.306Z,8.96
2019-02-23T11:47:40.716Z,8.95
2019-02-23T11:50:13.001Z,8.99
2019-02-23T11:52:41.370Z,9.07
2019-02-23T11:55:09.678Z,9.15
2019-02-23T11:57:37.981Z,9.17
2019-02-23T12:00:09.516Z,9.18
2019-02-23T12:02:38.239Z,9.18
2019-02-23T12:05:07.401Z,9.32
2019-02-23T12:07:35.801Z,9.37
2019-02-23T12:10:06.118Z,9.39
2019-02-23T12:12:34.426Z,9.53
2019-02-23T12:15:02.775Z,9.61
2019-02-23T12:17:31.179Z,9.65
2019-02-23T12:19:59.498Z,9.74
2019-02-23T12:22:27.798Z,9.83
2019-02-23T12:24:56.399Z,9.89
2019-02-23T12:27:24.965Z,9.90
2019-02-23T12:29:53.301Z,9.93
2019-02-23T12:32:21.864Z,9.91
2019-02-23T12:34:50.157Z,9.85
2019-02-23T12:37:18.485Z,9.90
2019-02-23T12:39:47.066Z,9.92
2019-02-23T12:42:15.396Z,9.92
2019-02-23T12:44:43.724Z,10.00
2019-02-23T12:47:12.300Z,10.05
2019-02-23T12:49:40.608Z,10.13
2019-02-23T12:52:08.932Z,10.21
2019-02-23T12:54:37.235Z,10.31
2019-02-23T12:57:05.553Z,10.20
2019-02-23T12:59:33.847Z,10.19
2019-02-23T13:02:02.168Z,10.24
2019-02-23T13:04:30.473Z,10.28
2019-02-23T13:06:58.770Z,10.39
2019-02-23T13:09:30.083Z,10.48
2019-02-23T13:12:04.220Z,10.55
2019-02-23T13:14:38.614Z,10.64
2019-02-23T13:17:26.731Z,10.68
2019-02-23T13:20:10.139Z,10.71
2019-02-23T13:23:08.786Z,10.76
2019-02-23T13:25:40.268Z,10.80
2019-02-23T13:28:23.473Z,10.83
2019-02-23T13:30:57.999Z,10.83
2019-02-23T13:34:00.154Z,10.80
2019-02-23T13:36:31.815Z,10.81
2019-02-23T13:39:18.574Z,10.82
2019-02-23T13:42:09.857Z,10.74
2019-02-23T13:45:13.414Z,10.76
2019-02-23T13:47:48.065Z,10.74
2019-02-23T13:50:31.442Z,10.73
2019-02-23T13:53:19.305Z,10.71
2019-02-23T13:56:05.879Z,10.66
2019-02-23T13:58:40.260Z,10.67
2019-02-23T14:01:18.336Z,10.72
2019-02-23T14:03:56.085Z,10.69
2019-02-23T14:06:51.380Z,10.65
2019-02-23T14:09:43.881Z,10.64
2019-02-23T14:12:27.286Z,10.63
2019-02-23T14:15:07.770Z,10.61
2019-02-23T14:17:47.556Z,10.65
2019-02-23T14:20:40.276Z,10.59
2019-02-23T14:23:34.137Z,10.59
2019-02-23T14:26:26.805Z,10.63
2019-02-23T14:29:24.254Z,10.67
2019-02-23T14:32:10.606Z,10.70
2019-02-23T14:35:03.095Z,10.70
2019-02-23T14:37:40.131Z,10.69
2019-02-23T14:40:23.686Z,10.73
2019-02-23T14:43:13.342Z,10.72
2019-02-23T14:45:44.826Z,10.67
2019-02-23T14:48:40.787Z,10.63
2019-02-23T14:51:21.332Z,10.68
2019-02-23T14:54:11.369Z,10.65
2019-02-23T14:56:42.907Z,10.61
2019-02-23T14:59:17.335Z,10.63
2019-02-23T15:02:00.872Z,10.62
2019-02-23T15:04:44.415Z,10.61
2019-02-23T15:07:27.284Z,10.63
2019-02-23T15:10:10.891Z,10.62
2019-02-23T15:13:00.395Z,10.65
2019-02-23T15:15:37.604Z,10.69
2019-02-23T15:18:33.208Z,10.72
2019-02-23T15:21:07.360Z,10.73
2019-02-23T15:23:50.670Z,10.75
2019-02-23T15:26:38.926Z,10.76
2019-02-23T15:29:26.728Z,10.73
2019-02-23T15:32:04.077Z,10.73
2019-02-23T15:34:41.291Z,10.73
2019-02-23T15:37:28.379Z,10.75
2019-02-23T15:40:11.659Z,10.79
2019-02-23T15:42:45.731Z,10.79
2019-02-23T15:45:32.394Z,10.78
2019-02-23T15:48:06.556Z,10.80
2019-02-23T15:50:34.816Z,10.84
2019-02-23T15:53:03.541Z,10.88
2019-02-23T15:55:31.862Z,10.81
2019-02-23T15:58:00.183Z,10.77
2019-02-23T16:00:28.573Z,10.75
2019-02-23T16:02:57.149Z,10.70
2019-02-23T16:05:25.531Z,10.69
2019-02-23T16:07:53.785Z,10.63
2019-02-23T16:10:22.229Z,10.61
2019-02-23T16:12:50.540Z,10.56
2019-02-23T16:15:18.850Z,10.51
2019-02-23T16:17:47.144Z,10.47
2019-02-23T16:20:15.459Z,10.46
2019-02-23T16:22:43.763Z,10.44
2019-02-23T16:25:12.094Z,10.42
2019-02-23T16:27:40.395Z,10.33
2019-02-23T16:30:10.542Z,10.27
2019-02-23T16:32:38.868Z,10.24
2019-02-23T16:35:08.244Z,10.18
2019-02-23T16:37:36.567Z,10.12
2019-02-23T16:40:06.130Z,10.06
2019-02-23T16:42:34.423Z,10.03
2019-02-23T16:45:03.072Z,9.99
2019-02-23T16:47:31.494Z,9.92
2019-02-23T16:49:59.810Z,9.85
2019-02-23T16:52:28.107Z,9.78
2019-02-23T16:54:56.398Z,9.73
2019-02-23T16:57:25.086Z,9.64
2019-02-23T16:59:53.370Z,9.57
2019-02-23T17:02:21.696Z,9.53
2019-02-23T17:04:53.649Z,9.48
2019-02-23T17:07:20.041Z,9.42
2019-02-23T17:09:48.338Z,9.41
2019-02-23T17:12:16.694Z,9.34
2019-02-23T17:14:45.074Z,9.30
2019-02-23T17:17:13.405Z,9.30
2019-02-23T17:19:42.642Z,9.23
2019-02-23T17:22:10.935Z,9.19
2019-02-23T17:24:39.272Z,9.13
2019-02-23T17:27:07.809Z,9.08
2019-02-23T17:29:36.442Z,9.03
2019-02-23T17:32:05.001Z,8.97
2019-02-23T17:34:33.321Z,8.93
2019-02-23T17:37:01.634Z,8.88
2019-02-23T17:39:29.998Z,8.82
2019-02-23T17:41:58.298Z,8.77
2019-02-23T17:44:26.858Z,8.71
2019-02-23T17:46:55.170Z,8.63
2019-02-23T17:49:23.504Z,8.59
2019-02-23T17:51:52.167Z,8.53
2019-02-23T17:54:20.468Z,8.45
2019-02-23T17:56:48.792Z,8.39
2019-02-23T17:59:17.079Z,8.29
2019-02-23T18:01:45.472Z,8.20
2019-02-23T18:04:13.814Z,8.08
2019-02-23T18:06:42.134Z,7.99
2019-02-23T18:09:10.434Z,7.93
2019-02-23T18:11:39.099Z,7.89
2019-02-23T18:14:07.481Z,7.89
2019-02-23T18:16:36.038Z,7.90
2019-02-23T18:19:04.347Z,7.88
2019-02-23T18:21:33.011Z,7.77
2019-02-23T18:24:01.340Z,7.64
2019-02-23T18:26:29.681Z,7.56
2019-02-23T18:28:58.002Z,7.51
2019-02-23T18:31:26.307Z,7.49
2019-02-23T18:33:54.617Z,7.46
2019-02-23T18:36:22.940Z,7.46
2019-02-23T18:38:51.281Z,7.43
2019-02-23T18:41:19.584Z,7.34
2019-02-23T18:43:48.208Z,7.25
2019-02-23T18:46:16.518Z,7.16
2019-02-23T18:48:44.808Z,7.05
2019-02-23T18:51:13.442Z,6.94
2019-02-23T18:53:42.030Z,6.84
2019-02-23T18:56:10.364Z,6.77
2019-02-23T18:58:38.661Z,6.70
2019-02-23T19:01:07.002Z,6.63
2019-02-23T19:03:35.287Z,6.58
2019-02-23T19:06:03.695Z,6.53
2019-02-23T19:08:31.989Z,6.49
2019-02-23T19:11:00.310Z,6.45
2019-02-23T19:13:28.604Z,6.46
2019-02-23T19:15:56.906Z,6.46
2019-02-23T19:18:25.228Z,6.43
2019-02-23T19:20:53.527Z,6.35
2019-02-23T19:23:22.182Z,6.26
2019-02-23T19:25:50.478Z,6.20
2019-02-23T19:28:18.803Z,6.14
2019-02-23T19:30:47.357Z,6.11
2019-02-23T19:33:15.725Z,6.11
2019-02-23T19:35:44.363Z,6.12
2019-02-23T19:38:12.955Z,6.14
2019-02-23T19:40:41.352Z,6.18
2019-02-23T19:43:09.660Z,6.12
2019-02-23T19:45:37.970Z,6.04
2019-02-23T19:48:06.283Z,5.97
2019-02-23T19:50:37.870Z,5.94
2019-02-23T19:53:06.166Z,5.90
2019-02-23T19:55:34.479Z,5.91
2019-02-23T19:58:02.769Z,5.96
2019-02-23T20:00:31.071Z,5.96
2019-02-23T20:02:59.366Z,5.97
2019-02-23T20:05:27.688Z,5.91
2019-02-23T20:07:56.269Z,5.80
2019-02-23T20:10:24.602Z,5.73
2019-02-23T20:12:52.906Z,5.66
2019-02-23T20:15:21.242Z,5.59
2019-02-23T20:17:49.556Z,5.51
2019-02-23T20:20:17.869Z,5.43
2019-02-23T20:22:46.169Z,5.35
2019-02-23T20:25:14.807Z,5.29
2019-02-23T20:27:43.128Z,5.24
2019-02-23T20:30:12.633Z,5.19
2019-02-23T20:32:40.934Z,5.15
2019-02-23T20:35:10.060Z,5.12
2019-02-23T20:37:38.366Z,5.09
2019-02-23T20:40:08.774Z,5.09
2019-02-23T20:42:37.095Z,5.09
2019-02-23T20:45:07.544Z,5.11
2019-02-23T20:47:35.903Z,5.14
2019-02-23T20:50:07.075Z,5.11
2019-02-23T20:52:35.401Z,5.04
2019-02-23T20:55:04.191Z,4.95
2019-02-23T20:57:32.593Z,4.92
2019-02-23T21:00:00.900Z,4.90
2019-02-23T21:02:29.196Z,4.84
2019-02-23T21:04:57.531Z,4.83
2019-02-23T21:07:25.826Z,4.83
2019-02-23T21:09:54.131Z,4.78
2019-02-23T21:12:22.531Z,4.68
2019-02-23T21:14:50.936Z,4.63
2019-02-23T21:17:19.227Z,4.60
2019-02-23T21:19:47.547Z,4.60
2019-02-23T21:22:15.833Z,4.58
2019-02-23T21:24:44.151Z,4.55
2019-02-23T21:27:13.174Z,4.54
2019-02-23T21:29:41.626Z,4.54
2019-02-23T21:32:10.202Z,4.54
2019-02-23T21:34:38.502Z,4.53
2019-02-23T21:37:06.832Z,4.45
2019-02-23T21:39:35.113Z,4.42
2019-02-23T21:42:03.437Z,4.44
2019-02-23T21:44:31.740Z,4.44
2019-02-23T21:47:00.045Z,4.43
2019-02-23T21:49:28.341Z,4.41
2019-02-23T21:51:56.667Z,4.37
2019-02-23T21:54:25.361Z,4.34
2019-02-23T21:56:53.676Z,4.33
2019-02-23T21:59:21.971Z,4.31
2019-02-23T22:01:50.306Z,4.30
2019-02-23T22:04:18.611Z,4.29
2019-02-23T22:06:47.248Z,4.28
2019-02-23T22:09:15.552Z,4.26
2019-02-23T22:11:43.869Z,4.25
2019-02-23T22:14:12.172Z,4.24
2019-02-23T22:16:40.464Z,4.24
2019-02-23T22:19:08.793Z,4.20
2019-02-23T22:21:37.083Z,4.16
2019-02-23T22:24:05.655Z,4.16
2019-02-23T22:26:33.962Z,4.14
2019-02-23T22:29:02.270Z,4.12
2019-02-23T22:31:30.562Z,4.15
2019-02-23T22:33:58.868Z,4.11
2019-02-23T22:36:27.206Z,4.10
2019-02-23T22:38:55.519Z,4.10
2019-02-23T22:41:23.883Z,4.07
2019-02-23T22:43:52.176Z,4.02
2019-02-23T22:46:20.506Z,4.00
2019-02-23T22:48:48.808Z,3.97
2019-02-23T22:51:17.143Z,4.00
2019-02-23T22:53:45.419Z,4.00
2019-02-23T22:56:13.995Z,3.98
2019-02-23T22:58:42.597Z,3.96
2019-02-23T23:01:11.368Z,3.95
2019-02-23T23:03:39.667Z,3.93
2019-02-23T23:06:07.988Z,3.92
2019-02-23T23:08:36.291Z,3.94
2019-02-23T23:11:04.618Z,3.93
2019-02-23T23:13:32.906Z,3.94
2019-02-23T23:16:01.274Z,3.92
2019-02-23T23:18:29.561Z,3.87
2019-02-23T23:20:57.854Z,3.84
2019-02-23T23:23:26.182Z,3.86
2019-02-23T23:25:54.476Z,3.88
2019-02-23T23:28:23.034Z,3.90
2019-02-23T23:30:51.354Z,3.85
2019-02-23T23:33:19.680Z,3.80
2019-02-23T23:35:48.189Z,3.76
2019-02-23T23:38:16.498Z,3.70
2019-02-23T23:40:45.039Z,3.69
2019-02-23T23:43:13.349Z,3.73
2019-02-23T23:45:41.654Z,3.78
2019-02-23T23:48:09.985Z,3.83
2019-02-23T23:50:38.293Z,3.87
2019-02-23T23:53:06.620Z,3.87
2019-02-23T23:55:34.903Z,3.82
2019-02-23T23:58:03.247Z,3.74
